X  Sluiten METAR luchtvaart weer gegevens      LGSO Syros Airport
Temperatuur
14°C Temperatuur
10°C Dauwpunt
77% Vochtigheid



Wind
29 KM/U
18 MPH
8 M/S
16 KTS



10°
Noord
Huidig weer

Lichte Regen Lichte Regen
Luchtdruk 1013.92 (hPa) - 29.94 (inHg)
Zicht 0 (mijl) - 0 (km)
Vliegveld
Vliegveld code LGSO

Locatie : Syros Airport
Afstand: 3 (km)

Metar:
LGSO 222020Z AUTO 01016KT //// -RA ////// 14/10 Q1014 RE//

Tijd: 22-03-2023 20:20 EET